sensor_id;sensor_type;location;lat;lon;timestamp;temperature;humidity
5023;DHT22;2530;47.990;7.866;2022-10-12T00:01:13;13.20;99.90
5023;DHT22;2530;47.990;7.866;2022-10-12T00:03:39;13.10;99.90
5023;DHT22;2530;47.990;7.866;2022-10-12T00:06:08;13.20;99.90
5023;DHT22;2530;47.990;7.866;2022-10-12T00:08:35;13.20;99.90
5023;DHT22;2530;47.990;7.866;2022-10-12T00:11:03;13.30;99.90
5023;DHT22;2530;47.990;7.866;2022-10-12T00:13:29;13.30;99.90
5023;DHT22;2530;47.990;7.866;2022-10-12T00:15:54;13.30;99.90
5023;DHT22;2530;47.990;7.866;2022-10-12T00:18:20;13.30;99.90
5023;DHT22;2530;47.990;7.866;2022-10-12T00:20:45;13.30;99.90
5023;DHT22;2530;47.990;7.866;2022-10-12T00:23:11;13.30;99.90
5023;DHT22;2530;47.990;7.866;2022-10-12T00:25:38;13.40;99.90
5023;DHT22;2530;47.990;7.866;2022-10-12T00:28:05;13.40;99.90
5023;DHT22;2530;47.990;7.866;2022-10-12T00:30:31;13.40;99.90
5023;DHT22;2530;47.990;7.866;2022-10-12T00:32:57;13.40;99.90
5023;DHT22;2530;47.990;7.866;2022-10-12T00:35:23;13.40;99.90
5023;DHT22;2530;47.990;7.866;2022-10-12T00:37:54;13.50;99.90
5023;DHT22;2530;47.990;7.866;2022-10-12T00:40:21;13.50;99.90
5023;DHT22;2530;47.990;7.866;2022-10-12T00:42:47;13.40;99.90
5023;DHT22;2530;47.990;7.866;2022-10-12T00:45:14;13.40;99.90
5023;DHT22;2530;47.990;7.866;2022-10-12T00:47:45;13.40;99.90
5023;DHT22;2530;47.990;7.866;2022-10-12T00:50:31;13.50;99.90
5023;DHT22;2530;47.990;7.866;2022-10-12T00:53:10;13.40;99.90
5023;DHT22;2530;47.990;7.866;2022-10-12T00:55:43;13.30;99.90
5023;DHT22;2530;47.990;7.866;2022-10-12T00:58:11;13.10;99.90
5023;DHT22;2530;47.990;7.866;2022-10-12T01:00:38;13.20;99.90
5023;DHT22;2530;47.990;7.866;2022-10-12T01:03:07;13.20;99.90
5023;DHT22;2530;47.990;7.866;2022-10-12T01:05:34;13.30;99.90
5023;DHT22;2530;47.990;7.866;2022-10-12T01:08:00;13.20;99.90
5023;DHT22;2530;47.990;7.866;2022-10-12T01:10:27;13.10;99.90
5023;DHT22;2530;47.990;7.866;2022-10-12T01:12:52;13.20;99.90
5023;DHT22;2530;47.990;7.866;2022-10-12T01:15:18;13.00;99.90
5023;DHT22;2530;47.990;7.866;2022-10-12T01:17:58;12.90;99.90
5023;DHT22;2530;47.990;7.866;2022-10-12T01:25:54;12.90;99.90
5023;DHT22;2530;47.990;7.866;2022-10-12T01:28:55;12.90;99.90
5023;DHT22;2530;47.990;7.866;2022-10-12T01:37:13;12.80;99.90
5023;DHT22;2530;47.990;7.866;2022-10-12T01:39:54;12.80;99.90
5023;DHT22;2530;47.990;7.866;2022-10-12T01:42:26;12.70;99.90
5023;DHT22;2530;47.990;7.866;2022-10-12T01:45:14;12.70;99.90
5023;DHT22;2530;47.990;7.866;2022-10-12T01:47:42;12.70;99.90
5023;DHT22;2530;47.990;7.866;2022-10-12T01:50:11;12.70;99.90
5023;DHT22;2530;47.990;7.866;2022-10-12T01:55:48;12.80;99.90
5023;DHT22;2530;47.990;7.866;2022-10-12T02:01:29;12.80;99.90
5023;DHT22;2530;47.990;7.866;2022-10-12T02:04:09;12.90;99.90
5023;DHT22;2530;47.990;7.866;2022-10-12T02:06:43;13.00;99.90
5023;DHT22;2530;47.990;7.866;2022-10-12T02:09:33;13.00;99.90
5023;DHT22;2530;47.990;7.866;2022-10-12T02:12:08;13.00;99.90
5023;DHT22;2530;47.990;7.866;2022-10-12T02:14:39;13.10;99.90
5023;DHT22;2530;47.990;7.866;2022-10-12T02:17:10;13.10;99.90
5023;DHT22;2530;47.990;7.866;2022-10-12T02:19:39;13.10;99.90
5023;DHT22;2530;47.990;7.866;2022-10-12T02:22:06;13.20;99.90
5023;DHT22;2530;47.990;7.866;2022-10-12T02:24:35;13.20;99.90
5023;DHT22;2530;47.990;7.866;2022-10-12T02:27:02;13.20;99.90
5023;DHT22;2530;47.990;7.866;2022-10-12T02:29:31;13.10;99.90
5023;DHT22;2530;47.990;7.866;2022-10-12T02:32:04;13.20;99.90
5023;DHT22;2530;47.990;7.866;2022-10-12T02:34:42;13.20;99.90
5023;DHT22;2530;47.990;7.866;2022-10-12T02:39:53;13.40;99.90
5023;DHT22;2530;47.990;7.866;2022-10-12T02:42:24;13.30;99.90
5023;DHT22;2530;47.990;7.866;2022-10-12T02:44:52;13.20;99.90
5023;DHT22;2530;47.990;7.866;2022-10-12T02:47:20;13.00;99.90
5023;DHT22;2530;47.990;7.866;2022-10-12T02:49:48;13.00;99.90
5023;DHT22;2530;47.990;7.866;2022-10-12T02:52:14;13.00;99.90
5023;DHT22;2530;47.990;7.866;2022-10-12T02:54:40;13.00;99.90
5023;DHT22;2530;47.990;7.866;2022-10-12T02:57:05;13.00;99.90
5023;DHT22;2530;47.990;7.866;2022-10-12T02:59:31;13.10;99.90
5023;DHT22;2530;47.990;7.866;2022-10-12T03:01:56;13.10;99.90
5023;DHT22;2530;47.990;7.866;2022-10-12T03:04:22;12.80;99.90
5023;DHT22;2530;47.990;7.866;2022-10-12T03:06:47;12.80;99.90
5023;DHT22;2530;47.990;7.866;2022-10-12T03:09:13;12.90;99.90
5023;DHT22;2530;47.990;7.866;2022-10-12T03:11:38;12.90;99.90
5023;DHT22;2530;47.990;7.866;2022-10-12T03:14:10;12.90;99.90
5023;DHT22;2530;47.990;7.866;2022-10-12T03:16:36;12.90;99.90
5023;DHT22;2530;47.990;7.866;2022-10-12T03:19:01;12.90;99.90
5023;DHT22;2530;47.990;7.866;2022-10-12T03:21:27;12.90;99.90
5023;DHT22;2530;47.990;7.866;2022-10-12T03:23:52;12.80;99.90
5023;DHT22;2530;47.990;7.866;2022-10-12T03:26:18;12.80;99.90
5023;DHT22;2530;47.990;7.866;2022-10-12T03:28:43;12.80;99.90
5023;DHT22;2530;47.990;7.866;2022-10-12T03:31:09;12.80;99.90
5023;DHT22;2530;47.990;7.866;2022-10-12T03:33:34;12.80;99.90
5023;DHT22;2530;47.990;7.866;2022-10-12T03:36:00;12.80;99.90
5023;DHT22;2530;47.990;7.866;2022-10-12T03:38:25;12.80;99.90
5023;DHT22;2530;47.990;7.866;2022-10-12T03:40:51;12.70;99.90
5023;DHT22;2530;47.990;7.866;2022-10-12T03:43:16;12.80;99.90
5023;DHT22;2530;47.990;7.866;2022-10-12T03:45:42;12.80;99.90
5023;DHT22;2530;47.990;7.866;2022-10-12T03:48:08;12.80;99.90
5023;DHT22;2530;47.990;7.866;2022-10-12T03:50:34;12.70;99.90
5023;DHT22;2530;47.990;7.866;2022-10-12T03:53:02;12.70;99.90
5023;DHT22;2530;47.990;7.866;2022-10-12T03:55:27;12.60;99.90
5023;DHT22;2530;47.990;7.866;2022-10-12T03:57:53;12.60;99.90
5023;DHT22;2530;47.990;7.866;2022-10-12T04:00:18;12.50;99.90
5023;DHT22;2530;47.990;7.866;2022-10-12T04:02:44;12.50;99.90
5023;DHT22;2530;47.990;7.866;2022-10-12T04:05:09;12.30;99.90
5023;DHT22;2530;47.990;7.866;2022-10-12T04:07:35;12.30;99.90
5023;DHT22;2530;47.990;7.866;2022-10-12T04:10:01;12.40;99.90
5023;DHT22;2530;47.990;7.866;2022-10-12T04:12:26;12.50;99.90
5023;DHT22;2530;47.990;7.866;2022-10-12T04:14:52;12.40;99.90
5023;DHT22;2530;47.990;7.866;2022-10-12T04:17:17;12.50;99.90
5023;DHT22;2530;47.990;7.866;2022-10-12T04:19:43;12.60;99.90
5023;DHT22;2530;47.990;7.866;2022-10-12T04:22:09;12.50;99.90
5023;DHT22;2530;47.990;7.866;2022-10-12T04:24:35;12.60;99.90
5023;DHT22;2530;47.990;7.866;2022-10-12T04:27:00;12.40;99.90
5023;DHT22;2530;47.990;7.866;2022-10-12T04:29:26;12.30;99.90
5023;DHT22;2530;47.990;7.866;2022-10-12T04:31:51;12.20;99.90
5023;DHT22;2530;47.990;7.866;2022-10-12T04:34:17;12.30;99.90
5023;DHT22;2530;47.990;7.866;2022-10-12T04:36:42;12.20;99.90
5023;DHT22;2530;47.990;7.866;2022-10-12T04:39:08;12.30;99.90
5023;DHT22;2530;47.990;7.866;2022-10-12T04:41:34;12.20;99.90
5023;DHT22;2530;47.990;7.866;2022-10-12T04:43:59;12.20;99.90
5023;DHT22;2530;47.990;7.866;2022-10-12T04:46:25;12.30;99.90
5023;DHT22;2530;47.990;7.866;2022-10-12T04:48:50;12.30;99.90
5023;DHT22;2530;47.990;7.866;2022-10-12T04:51:16;12.10;99.90
5023;DHT22;2530;47.990;7.866;2022-10-12T04:53:41;12.20;99.90
5023;DHT22;2530;47.990;7.866;2022-10-12T04:56:07;12.10;99.90
5023;DHT22;2530;47.990;7.866;2022-10-12T04:58:33;12.10;99.90
5023;DHT22;2530;47.990;7.866;2022-10-12T05:00:58;12.00;99.90
5023;DHT22;2530;47.990;7.866;2022-10-12T05:03:24;12.00;99.90
5023;DHT22;2530;47.990;7.866;2022-10-12T05:05:50;12.00;99.90
5023;DHT22;2530;47.990;7.866;2022-10-12T05:08:16;12.00;99.90
5023;DHT22;2530;47.990;7.866;2022-10-12T05:10:41;12.10;99.90
5023;DHT22;2530;47.990;7.866;2022-10-12T05:13:07;12.00;99.90
5023;DHT22;2530;47.990;7.866;2022-10-12T05:15:32;12.10;99.90
5023;DHT22;2530;47.990;7.866;2022-10-12T05:17:58;12.20;99.90
5023;DHT22;2530;47.990;7.866;2022-10-12T05:20:24;12.20;99.90
5023;DHT22;2530;47.990;7.866;2022-10-12T05:22:49;12.10;99.90
5023;DHT22;2530;47.990;7.866;2022-10-12T05:25:15;12.00;99.90
5023;DHT22;2530;47.990;7.866;2022-10-12T05:27:40;12.00;99.90
5023;DHT22;2530;47.990;7.866;2022-10-12T05:30:07;12.00;99.90
5023;DHT22;2530;47.990;7.866;2022-10-12T05:32:32;12.10;99.90
5023;DHT22;2530;47.990;7.866;2022-10-12T05:34:58;12.10;99.90
5023;DHT22;2530;47.990;7.866;2022-10-12T05:37:24;12.10;99.90
5023;DHT22;2530;47.990;7.866;2022-10-12T05:39:49;12.00;99.90
5023;DHT22;2530;47.990;7.866;2022-10-12T05:42:16;11.90;99.90
5023;DHT22;2530;47.990;7.866;2022-10-12T05:44:42;12.00;99.90
5023;DHT22;2530;47.990;7.866;2022-10-12T05:47:08;12.00;99.90
5023;DHT22;2530;47.990;7.866;2022-10-12T05:49:33;12.00;99.90
5023;DHT22;2530;47.990;7.866;2022-10-12T05:51:59;12.00;99.90
5023;DHT22;2530;47.990;7.866;2022-10-12T05:54:25;12.00;99.90
5023;DHT22;2530;47.990;7.866;2022-10-12T05:56:50;12.00;99.90
5023;DHT22;2530;47.990;7.866;2022-10-12T05:59:16;12.10;99.90
5023;DHT22;2530;47.990;7.866;2022-10-12T06:01:41;12.00;99.90
5023;DHT22;2530;47.990;7.866;2022-10-12T06:04:07;11.90;99.90
5023;DHT22;2530;47.990;7.866;2022-10-12T06:06:33;11.90;99.90
5023;DHT22;2530;47.990;7.866;2022-10-12T06:08:58;11.90;99.90
5023;DHT22;2530;47.990;7.866;2022-10-12T06:11:24;12.00;99.90
5023;DHT22;2530;47.990;7.866;2022-10-12T06:13:50;12.10;99.90
5023;DHT22;2530;47.990;7.866;2022-10-12T06:16:15;12.20;99.90
5023;DHT22;2530;47.990;7.866;2022-10-12T06:18:42;12.10;99.90
5023;DHT22;2530;47.990;7.866;2022-10-12T06:21:07;12.10;99.90
5023;DHT22;2530;47.990;7.866;2022-10-12T06:23:34;12.10;99.90
5023;DHT22;2530;47.990;7.866;2022-10-12T06:25:59;12.20;99.90
5023;DHT22;2530;47.990;7.866;2022-10-12T06:28:25;12.20;99.90
5023;DHT22;2530;47.990;7.866;2022-10-12T06:30:56;12.20;99.90
5023;DHT22;2530;47.990;7.866;2022-10-12T06:33:22;12.20;99.90
5023;DHT22;2530;47.990;7.866;2022-10-12T06:35:48;12.20;99.90
5023;DHT22;2530;47.990;7.866;2022-10-12T06:38:14;12.30;99.90
5023;DHT22;2530;47.990;7.866;2022-10-12T06:40:40;12.30;99.90
5023;DHT22;2530;47.990;7.866;2022-10-12T06:43:05;12.20;99.90
5023;DHT22;2530;47.990;7.866;2022-10-12T06:45:31;12.20;99.90
5023;DHT22;2530;47.990;7.866;2022-10-12T06:47:57;12.20;99.90
5023;DHT22;2530;47.990;7.866;2022-10-12T06:50:23;12.30;99.90
5023;DHT22;2530;47.990;7.866;2022-10-12T06:52:51;12.30;99.90
5023;DHT22;2530;47.990;7.866;2022-10-12T06:55:16;12.30;99.90
5023;DHT22;2530;47.990;7.866;2022-10-12T06:57:42;12.40;99.90
5023;DHT22;2530;47.990;7.866;2022-10-12T07:00:08;12.40;99.90
5023;DHT22;2530;47.990;7.866;2022-10-12T07:02:36;12.50;99.90
5023;DHT22;2530;47.990;7.866;2022-10-12T07:05:01;12.50;99.90
5023;DHT22;2530;47.990;7.866;2022-10-12T07:07:31;12.40;99.90
5023;DHT22;2530;47.990;7.866;2022-10-12T07:09:57;12.50;99.90
5023;DHT22;2530;47.990;7.866;2022-10-12T07:12:22;12.60;99.90
5023;DHT22;2530;47.990;7.866;2022-10-12T07:14:48;12.50;99.90
5023;DHT22;2530;47.990;7.866;2022-10-12T07:17:13;12.60;99.90
5023;DHT22;2530;47.990;7.866;2022-10-12T07:19:39;12.60;99.90
5023;DHT22;2530;47.990;7.866;2022-10-12T07:22:05;12.70;99.90
5023;DHT22;2530;47.990;7.866;2022-10-12T07:24:30;12.70;99.90
5023;DHT22;2530;47.990;7.866;2022-10-12T07:27:06;12.90;99.90
5023;DHT22;2530;47.990;7.866;2022-10-12T07:29:33;12.90;99.90
5023;DHT22;2530;47.990;7.866;2022-10-12T07:31:59;13.00;99.90
5023;DHT22;2530;47.990;7.866;2022-10-12T07:34:26;13.00;99.90
5023;DHT22;2530;47.990;7.866;2022-10-12T07:36:51;13.20;99.90
5023;DHT22;2530;47.990;7.866;2022-10-12T07:39:17;13.30;99.90
5023;DHT22;2530;47.990;7.866;2022-10-12T07:41:43;13.30;99.90
5023;DHT22;2530;47.990;7.866;2022-10-12T07:44:09;13.00;99.90
5023;DHT22;2530;47.990;7.866;2022-10-12T07:46:35;13.20;99.90
5023;DHT22;2530;47.990;7.866;2022-10-12T07:49:00;13.30;99.90
5023;DHT22;2530;47.990;7.866;2022-10-12T07:51:27;13.40;99.90
5023;DHT22;2530;47.990;7.866;2022-10-12T07:53:52;13.40;99.90
5023;DHT22;2530;47.990;7.866;2022-10-12T07:56:18;13.40;99.90
5023;DHT22;2530;47.990;7.866;2022-10-12T07:58:48;13.50;99.90
5023;DHT22;2530;47.990;7.866;2022-10-12T08:01:18;13.70;99.90
5023;DHT22;2530;47.990;7.866;2022-10-12T08:03:44;13.80;99.90
5023;DHT22;2530;47.990;7.866;2022-10-12T08:06:15;13.70;99.90
5023;DHT22;2530;47.990;7.866;2022-10-12T08:08:42;13.60;99.90
5023;DHT22;2530;47.990;7.866;2022-10-12T08:11:08;13.90;99.90
5023;DHT22;2530;47.990;7.866;2022-10-12T08:13:35;13.90;99.90
5023;DHT22;2530;47.990;7.866;2022-10-12T08:16:02;13.90;99.90
5023;DHT22;2530;47.990;7.866;2022-10-12T08:18:27;13.90;99.90
5023;DHT22;2530;47.990;7.866;2022-10-12T08:20:53;13.80;99.90
5023;DHT22;2530;47.990;7.866;2022-10-12T08:23:19;13.90;99.90
5023;DHT22;2530;47.990;7.866;2022-10-12T08:25:57;13.90;99.90
5023;DHT22;2530;47.990;7.866;2022-10-12T08:28:23;14.10;99.90
5023;DHT22;2530;47.990;7.866;2022-10-12T08:30:49;14.10;99.90
5023;DHT22;2530;47.990;7.866;2022-10-12T08:33:16;14.10;99.90
5023;DHT22;2530;47.990;7.866;2022-10-12T08:35:43;14.10;99.90
5023;DHT22;2530;47.990;7.866;2022-10-12T08:38:10;14.10;99.90
5023;DHT22;2530;47.990;7.866;2022-10-12T08:46:12;14.10;99.90
5023;DHT22;2530;47.990;7.866;2022-10-12T08:51:20;14.20;99.90
5023;DHT22;2530;47.990;7.866;2022-10-12T08:53:54;14.20;99.90
5023;DHT22;2530;47.990;7.866;2022-10-12T08:56:21;14.30;99.90
5023;DHT22;2530;47.990;7.866;2022-10-12T08:58:50;14.20;99.90
5023;DHT22;2530;47.990;7.866;2022-10-12T09:01:32;14.30;99.90
5023;DHT22;2530;47.990;7.866;2022-10-12T09:07:03;14.40;99.90
5023;DHT22;2530;47.990;7.866;2022-10-12T09:12:54;14.60;99.90
5023;DHT22;2530;47.990;7.866;2022-10-12T09:15:36;14.60;99.90
5023;DHT22;2530;47.990;7.866;2022-10-12T09:18:33;14.50;99.90
5023;DHT22;2530;47.990;7.866;2022-10-12T09:21:03;14.60;99.90
5023;DHT22;2530;47.990;7.866;2022-10-12T09:23:36;14.80;99.90
5023;DHT22;2530;47.990;7.866;2022-10-12T09:26:18;15.00;99.90
5023;DHT22;2530;47.990;7.866;2022-10-12T09:28:53;15.00;99.90
5023;DHT22;2530;47.990;7.866;2022-10-12T09:34:11;15.20;99.90
5023;DHT22;2530;47.990;7.866;2022-10-12T09:36:39;15.20;99.90
5023;DHT22;2530;47.990;7.866;2022-10-12T09:41:54;15.30;99.90
5023;DHT22;2530;47.990;7.866;2022-10-12T09:44:32;15.50;99.90
5023;DHT22;2530;47.990;7.866;2022-10-12T09:49:47;15.40;99.90
5023;DHT22;2530;47.990;7.866;2022-10-12T09:52:19;15.40;99.90
5023;DHT22;2530;47.990;7.866;2022-10-12T09:57:40;15.10;99.90
5023;DHT22;2530;47.990;7.866;2022-10-12T10:00:25;15.40;99.90
5023;DHT22;2530;47.990;7.866;2022-10-12T10:03:02;15.50;99.90
5023;DHT22;2530;47.990;7.866;2022-10-12T10:05:30;15.50;99.90
5023;DHT22;2530;47.990;7.866;2022-10-12T10:10:51;15.80;99.90
5023;DHT22;2530;47.990;7.866;2022-10-12T10:13:18;15.60;99.90
5023;DHT22;2530;47.990;7.866;2022-10-12T10:15:48;15.70;99.90
5023;DHT22;2530;47.990;7.866;2022-10-12T10:18:33;16.00;99.90
5023;DHT22;2530;47.990;7.866;2022-10-12T10:21:02;16.00;99.90
5023;DHT22;2530;47.990;7.866;2022-10-12T10:23:31;16.00;99.90
5023;DHT22;2530;47.990;7.866;2022-10-12T10:26:11;15.90;99.90
5023;DHT22;2530;47.990;7.866;2022-10-12T10:28:40;16.10;99.90
5023;DHT22;2530;47.990;7.866;2022-10-12T10:33:39;16.10;99.90
5023;DHT22;2530;47.990;7.866;2022-10-12T10:36:18;16.20;99.90
5023;DHT22;2530;47.990;7.866;2022-10-12T10:39:00;16.50;99.90
5023;DHT22;2530;47.990;7.866;2022-10-12T10:41:32;16.80;99.90
5023;DHT22;2530;47.990;7.866;2022-10-12T10:44:00;16.80;99.90
5023;DHT22;2530;47.990;7.866;2022-10-12T10:46:29;17.20;99.90
5023;DHT22;2530;47.990;7.866;2022-10-12T10:49:01;17.10;99.90
5023;DHT22;2530;47.990;7.866;2022-10-12T10:52:07;17.00;99.90
5023;DHT22;2530;47.990;7.866;2022-10-12T10:54:35;17.40;99.90
5023;DHT22;2530;47.990;7.866;2022-10-12T10:57:18;16.90;99.90
5023;DHT22;2530;47.990;7.866;2022-10-12T11:00:03;17.10;99.90
5023;DHT22;2530;47.990;7.866;2022-10-12T11:02:44;16.80;99.90
5023;DHT22;2530;47.990;7.866;2022-10-12T11:07:55;16.30;99.90
5023;DHT22;2530;47.990;7.866;2022-10-12T11:10:39;16.30;99.90
5023;DHT22;2530;47.990;7.866;2022-10-12T11:13:19;16.30;99.90
5023;DHT22;2530;47.990;7.866;2022-10-12T11:15:50;16.50;99.90
5023;DHT22;2530;47.990;7.866;2022-10-12T11:18:25;16.40;99.90
5023;DHT22;2530;47.990;7.866;2022-10-12T11:21:00;16.60;99.90
5023;DHT22;2530;47.990;7.866;2022-10-12T11:28:35;16.70;99.90
5023;DHT22;2530;47.990;7.866;2022-10-12T11:31:01;16.80;99.90
5023;DHT22;2530;47.990;7.866;2022-10-12T11:33:38;16.70;99.90
5023;DHT22;2530;47.990;7.866;2022-10-12T11:36:08;16.60;99.90
5023;DHT22;2530;47.990;7.866;2022-10-12T11:41:14;16.40;99.90
5023;DHT22;2530;47.990;7.866;2022-10-12T11:43:45;16.40;99.90
5023;DHT22;2530;47.990;7.866;2022-10-12T11:46:14;16.50;99.90
5023;DHT22;2530;47.990;7.866;2022-10-12T11:51:46;16.50;99.90
5023;DHT22;2530;47.990;7.866;2022-10-12T11:57:16;16.30;99.90
5023;DHT22;2530;47.990;7.866;2022-10-12T11:59:47;16.50;99.90
5023;DHT22;2530;47.990;7.866;2022-10-12T12:02:31;16.50;99.90
5023;DHT22;2530;47.990;7.866;2022-10-12T12:04:58;16.60;99.90
5023;DHT22;2530;47.990;7.866;2022-10-12T12:07:46;16.70;99.90
5023;DHT22;2530;47.990;7.866;2022-10-12T12:18:18;16.50;99.90
5023;DHT22;2530;47.990;7.866;2022-10-12T12:28:37;16.60;99.90
5023;DHT22;2530;47.990;7.866;2022-10-12T12:31:26;16.60;99.90
5023;DHT22;2530;47.990;7.866;2022-10-12T12:34:18;16.80;99.90
5023;DHT22;2530;47.990;7.866;2022-10-12T12:36:46;16.80;99.90
5023;DHT22;2530;47.990;7.866;2022-10-12T12:39:29;16.80;99.90
5023;DHT22;2530;47.990;7.866;2022-10-12T12:42:06;16.80;99.90
5023;DHT22;2530;47.990;7.866;2022-10-12T12:49:57;17.50;99.90
5023;DHT22;2530;47.990;7.866;2022-10-12T12:52:32;17.80;99.90
5023;DHT22;2530;47.990;7.866;2022-10-12T12:58:25;18.30;99.90
5023;DHT22;2530;47.990;7.866;2022-10-12T13:01:12;18.40;99.90
5023;DHT22;2530;47.990;7.866;2022-10-12T13:04:22;19.00;99.90
5023;DHT22;2530;47.990;7.866;2022-10-12T13:10:08;18.70;99.90
5023;DHT22;2530;47.990;7.866;2022-10-12T13:15:33;18.40;99.90
5023;DHT22;2530;47.990;7.866;2022-10-12T13:20:49;18.40;99.90
5023;DHT22;2530;47.990;7.866;2022-10-12T13:23:23;19.00;99.90
5023;DHT22;2530;47.990;7.866;2022-10-12T13:25:52;19.20;99.90
5023;DHT22;2530;47.990;7.866;2022-10-12T13:28:23;19.20;99.90
5023;DHT22;2530;47.990;7.866;2022-10-12T13:31:06;19.00;99.90
5023;DHT22;2530;47.990;7.866;2022-10-12T13:33:41;19.40;99.90
5023;DHT22;2530;47.990;7.866;2022-10-12T13:36:29;19.50;99.90
5023;DHT22;2530;47.990;7.866;2022-10-12T13:38:57;19.20;99.90
5023;DHT22;2530;47.990;7.866;2022-10-12T13:41:25;19.30;99.90
5023;DHT22;2530;47.990;7.866;2022-10-12T13:43:54;19.10;99.90
5023;DHT22;2530;47.990;7.866;2022-10-12T13:46:47;19.20;99.90
5023;DHT22;2530;47.990;7.866;2022-10-12T13:51:50;19.20;99.90
5023;DHT22;2530;47.990;7.866;2022-10-12T13:54:34;19.50;99.90
5023;DHT22;2530;47.990;7.866;2022-10-12T13:59:44;19.40;99.90
5023;DHT22;2530;47.990;7.866;2022-10-12T14:02:23;19.30;99.90
5023;DHT22;2530;47.990;7.866;2022-10-12T14:04:52;19.60;99.90
5023;DHT22;2530;47.990;7.866;2022-10-12T14:07:21;19.10;99.90
5023;DHT22;2530;47.990;7.866;2022-10-12T14:09:54;19.10;99.90
5023;DHT22;2530;47.990;7.866;2022-10-12T14:12:20;19.40;99.90
5023;DHT22;2530;47.990;7.866;2022-10-12T14:14:46;19.60;99.90
5023;DHT22;2530;47.990;7.866;2022-10-12T14:17:14;19.30;99.90
5023;DHT22;2530;47.990;7.866;2022-10-12T14:22:10;19.10;99.90
5023;DHT22;2530;47.990;7.866;2022-10-12T14:24:37;19.20;99.90
5023;DHT22;2530;47.990;7.866;2022-10-12T14:27:04;18.90;99.90
5023;DHT22;2530;47.990;7.866;2022-10-12T14:29:44;19.40;99.90
5023;DHT22;2530;47.990;7.866;2022-10-12T14:34:39;19.40;99.90
5023;DHT22;2530;47.990;7.866;2022-10-12T14:39:35;19.30;99.90
5023;DHT22;2530;47.990;7.866;2022-10-12T14:42:22;19.60;99.90
5023;DHT22;2530;47.990;7.866;2022-10-12T14:44:51;19.70;99.90
5023;DHT22;2530;47.990;7.866;2022-10-12T14:47:23;19.80;99.90
5023;DHT22;2530;47.990;7.866;2022-10-12T14:49:51;19.70;99.90
5023;DHT22;2530;47.990;7.866;2022-10-12T14:52:28;19.80;99.90
5023;DHT22;2530;47.990;7.866;2022-10-12T14:54:57;19.60;99.90
5023;DHT22;2530;47.990;7.866;2022-10-12T14:57:24;19.80;99.90
5023;DHT22;2530;47.990;7.866;2022-10-12T14:59:51;19.60;99.90
5023;DHT22;2530;47.990;7.866;2022-10-12T15:02:23;19.40;99.90
5023;DHT22;2530;47.990;7.866;2022-10-12T15:04:50;19.50;99.90
5023;DHT22;2530;47.990;7.866;2022-10-12T15:07:21;19.20;99.90
5023;DHT22;2530;47.990;7.866;2022-10-12T15:09:47;19.50;99.90
5023;DHT22;2530;47.990;7.866;2022-10-12T15:12:18;19.80;99.90
5023;DHT22;2530;47.990;7.866;2022-10-12T15:14:44;19.10;99.90
5023;DHT22;2530;47.990;7.866;2022-10-12T15:17:13;19.70;99.90
5023;DHT22;2530;47.990;7.866;2022-10-12T15:19:40;19.40;99.90
5023;DHT22;2530;47.990;7.866;2022-10-12T15:22:09;19.50;99.90
5023;DHT22;2530;47.990;7.866;2022-10-12T15:24:37;19.50;99.90
5023;DHT22;2530;47.990;7.866;2022-10-12T15:27:03;19.70;99.90
5023;DHT22;2530;47.990;7.866;2022-10-12T15:29:31;19.70;99.90
5023;DHT22;2530;47.990;7.866;2022-10-12T15:32:05;19.40;99.90
5023;DHT22;2530;47.990;7.866;2022-10-12T15:34:30;19.10;99.90
5023;DHT22;2530;47.990;7.866;2022-10-12T15:36:56;19.30;99.90
5023;DHT22;2530;47.990;7.866;2022-10-12T15:39:22;19.20;99.90
5023;DHT22;2530;47.990;7.866;2022-10-12T15:41:47;18.70;99.90
5023;DHT22;2530;47.990;7.866;2022-10-12T15:44:14;18.80;99.90
5023;DHT22;2530;47.990;7.866;2022-10-12T15:46:41;18.90;99.90
5023;DHT22;2530;47.990;7.866;2022-10-12T15:49:07;18.90;99.90
5023;DHT22;2530;47.990;7.866;2022-10-12T15:51:38;18.80;99.90
5023;DHT22;2530;47.990;7.866;2022-10-12T15:54:04;18.70;99.90
5023;DHT22;2530;47.990;7.866;2022-10-12T15:56:30;18.60;99.90
5023;DHT22;2530;47.990;7.866;2022-10-12T15:58:56;18.20;99.90
5023;DHT22;2530;47.990;7.866;2022-10-12T16:01:27;18.00;99.90
5023;DHT22;2530;47.990;7.866;2022-10-12T16:03:53;17.70;99.90
5023;DHT22;2530;47.990;7.866;2022-10-12T16:06:24;17.40;99.90
5023;DHT22;2530;47.990;7.866;2022-10-12T16:08:52;17.30;99.90
5023;DHT22;2530;47.990;7.866;2022-10-12T16:11:19;17.40;99.90
5023;DHT22;2530;47.990;7.866;2022-10-12T16:13:47;17.10;99.90
5023;DHT22;2530;47.990;7.866;2022-10-12T16:16:15;17.20;99.90
5023;DHT22;2530;47.990;7.866;2022-10-12T16:18:40;17.30;99.90
5023;DHT22;2530;47.990;7.866;2022-10-12T16:21:09;17.40;99.90
5023;DHT22;2530;47.990;7.866;2022-10-12T16:23:36;17.40;99.90
5023;DHT22;2530;47.990;7.866;2022-10-12T16:26:07;17.40;99.90
5023;DHT22;2530;47.990;7.866;2022-10-12T16:28:34;17.40;99.90
5023;DHT22;2530;47.990;7.866;2022-10-12T16:31:00;17.20;99.90
5023;DHT22;2530;47.990;7.866;2022-10-12T16:33:25;17.00;99.90
5023;DHT22;2530;47.990;7.866;2022-10-12T16:35:51;16.70;99.90
5023;DHT22;2530;47.990;7.866;2022-10-12T16:38:17;16.60;99.90
5023;DHT22;2530;47.990;7.866;2022-10-12T16:40:44;16.50;99.90
5023;DHT22;2530;47.990;7.866;2022-10-12T16:43:10;16.40;99.90
5023;DHT22;2530;47.990;7.866;2022-10-12T16:45:36;16.10;99.90
5023;DHT22;2530;47.990;7.866;2022-10-12T16:48:02;16.00;99.90
5023;DHT22;2530;47.990;7.866;2022-10-12T16:50:28;15.70;99.90
5023;DHT22;2530;47.990;7.866;2022-10-12T16:52:54;15.60;99.90
5023;DHT22;2530;47.990;7.866;2022-10-12T16:55:19;15.50;99.90
5023;DHT22;2530;47.990;7.866;2022-10-12T16:57:45;15.30;99.90
5023;DHT22;2530;47.990;7.866;2022-10-12T17:00:13;15.40;99.90
5023;DHT22;2530;47.990;7.866;2022-10-12T17:02:39;15.20;99.90
5023;DHT22;2530;47.990;7.866;2022-10-12T17:05:05;15.10;99.90
5023;DHT22;2530;47.990;7.866;2022-10-12T17:07:31;15.10;99.90
5023;DHT22;2530;47.990;7.866;2022-10-12T17:09:57;15.00;99.90
5023;DHT22;2530;47.990;7.866;2022-10-12T17:12:23;15.00;99.90
5023;DHT22;2530;47.990;7.866;2022-10-12T17:14:50;14.80;99.90
5023;DHT22;2530;47.990;7.866;2022-10-12T17:17:16;14.70;99.90
5023;DHT22;2530;47.990;7.866;2022-10-12T17:19:42;14.70;99.90
5023;DHT22;2530;47.990;7.866;2022-10-12T17:22:09;14.70;99.90
5023;DHT22;2530;47.990;7.866;2022-10-12T17:24:37;14.70;99.90
5023;DHT22;2530;47.990;7.866;2022-10-12T17:27:05;14.60;99.90
5023;DHT22;2530;47.990;7.866;2022-10-12T17:29:32;14.50;99.90
5023;DHT22;2530;47.990;7.866;2022-10-12T17:32:00;14.50;99.90
5023;DHT22;2530;47.990;7.866;2022-10-12T17:34:29;14.40;99.90
5023;DHT22;2530;47.990;7.866;2022-10-12T17:36:57;14.30;99.90
5023;DHT22;2530;47.990;7.866;2022-10-12T17:39:24;14.30;99.90
5023;DHT22;2530;47.990;7.866;2022-10-12T17:41:50;14.30;99.90
5023;DHT22;2530;47.990;7.866;2022-10-12T17:44:16;14.30;99.90
5023;DHT22;2530;47.990;7.866;2022-10-12T17:46:43;14.30;99.90
5023;DHT22;2530;47.990;7.866;2022-10-12T17:49:14;14.30;99.90
5023;DHT22;2530;47.990;7.866;2022-10-12T17:51:41;14.40;99.90
5023;DHT22;2530;47.990;7.866;2022-10-12T17:54:08;14.50;99.90
5023;DHT22;2530;47.990;7.866;2022-10-12T17:56:34;14.50;99.90
5023;DHT22;2530;47.990;7.866;2022-10-12T17:59:01;14.50;99.90
5023;DHT22;2530;47.990;7.866;2022-10-12T18:01:28;14.40;99.90
5023;DHT22;2530;47.990;7.866;2022-10-12T18:03:54;14.50;99.90
5023;DHT22;2530;47.990;7.866;2022-10-12T18:06:22;14.50;99.90
5023;DHT22;2530;47.990;7.866;2022-10-12T18:08:49;14.50;99.90